Main page
METAR-TAF:

METAR-TAF

Airports :

Orcas Island Airport

Eastsound, Washington, United States

latitude: 48-42-29N, longitude: 122-54-37W, elevation: 9 m

Current weather observation

The report was made 17 minutes ago, at 13:55 UTC
Calm wind
Temperature 15°C
Humidity 77%
Pressure 1015 hPa
Visibility: 14.5 km
Clear sky

METAR: KORS 211355Z AUTO 00000KT 9SM CLR 15/11 A2996 RMK AO2

Time: 07:12 (14:12 UTC)


TAF: missing

Weather observations and forecasts of more than 4000 airports (METAR and TAF reports).

The available stations are represented by yellow and red dots on the map.

Hover mouse over dot to see the name of the station.

Then click to see weather observations and forecasts.

To change the map : click on the green buttons with a black cross to zoom in, on the green button with a dash to zoom out, or on the green arrows for adjacent maps.


METAR-TAF: